createdAt,value
2022-09-15T00:01:47.544Z,99288.16
2022-09-15T00:04:49.508Z,99290.91
2022-09-15T00:07:51.123Z,99280.34
2022-09-15T00:11:04.303Z,99286.34
2022-09-15T00:14:07.986Z,99278.34
2022-09-15T00:17:09.794Z,99280.81
2022-09-15T00:20:11.455Z,99283.66
2022-09-15T00:23:15.498Z,99285.34
2022-09-15T00:26:20.070Z,99274.44
2022-09-15T00:29:21.625Z,99282.16
2022-09-15T00:32:23.356Z,99280.44
2022-09-15T00:35:25.016Z,99269.66
2022-09-15T00:38:26.659Z,99264.94
2022-09-15T00:41:28.706Z,99251.91
2022-09-15T00:44:36.235Z,99256.72
2022-09-15T00:47:40.140Z,99249.50
2022-09-15T00:50:46.456Z,99251.28
2022-09-15T00:53:49.574Z,99247.75
2022-09-15T00:56:55.257Z,99241.59
2022-09-15T01:03:18.322Z,99223.44
2022-09-15T01:06:37.443Z,99257.03
2022-09-15T01:09:54.071Z,99290.13
2022-09-15T01:13:00.480Z,99283.75
2022-09-15T01:20:01.747Z,99273.56
2022-09-15T01:23:09.303Z,99274.66
2022-09-15T01:26:10.774Z,99274.94
2022-09-15T01:29:37.439Z,99299.63
2022-09-15T01:33:16.463Z,99316.50
2022-09-15T01:36:37.800Z,99292.16
2022-09-15T01:39:50.109Z,99299.13
2022-09-15T01:42:53.562Z,99297.03
2022-09-15T01:45:55.901Z,99296.84
2022-09-15T01:49:00.733Z,99293.50
2022-09-15T01:52:03.132Z,99287.06
2022-09-15T01:55:14.043Z,99288.31
2022-09-15T01:58:15.720Z,99289.91
2022-09-15T02:01:33.148Z,99289.00
2022-09-15T02:04:35.013Z,99290.91
2022-09-15T02:07:45.286Z,99283.03
2022-09-15T02:11:09.753Z,99269.16
2022-09-15T02:14:21.815Z,99286.72
2022-09-15T02:17:29.300Z,99272.44
2022-09-15T02:20:39.766Z,99276.72
2022-09-15T02:23:46.865Z,99290.97
2022-09-15T02:26:51.479Z,99292.09
2022-09-15T02:29:57.557Z,99290.16
2022-09-15T02:33:09.409Z,99300.69
2022-09-15T02:36:14.957Z,99293.75
2022-09-15T02:39:20.556Z,99288.53
2022-09-15T02:42:32.778Z,99289.25
2022-09-15T02:45:34.689Z,99281.41
2022-09-15T02:48:36.298Z,99289.25
2022-09-15T02:51:38.228Z,99285.72
2022-09-15T02:54:39.814Z,99282.00
2022-09-15T02:57:41.730Z,99281.16
2022-09-15T03:00:44.244Z,99283.44
2022-09-15T03:03:46.832Z,99301.41
2022-09-15T03:06:48.427Z,99314.37
2022-09-15T03:09:50.700Z,99312.09
2022-09-15T03:12:54.627Z,99314.13
2022-09-15T03:15:56.638Z,99310.50
2022-09-15T03:18:59.884Z,99317.63
2022-09-15T03:22:01.527Z,99325.34
2022-09-15T03:25:05.732Z,99320.50
2022-09-15T03:28:07.355Z,99321.50
2022-09-15T03:31:09.724Z,99315.47
2022-09-15T03:34:11.388Z,99311.16
2022-09-15T03:37:13.168Z,99321.34
2022-09-15T03:40:15.053Z,99315.25
2022-09-15T03:43:18.694Z,99327.25
2022-09-15T03:46:20.882Z,99326.56
2022-09-15T03:49:22.561Z,99332.94
2022-09-15T03:52:24.457Z,99327.16
2022-09-15T03:55:26.828Z,99326.22
2022-09-15T03:58:30.736Z,99333.25
2022-09-15T04:01:33.806Z,99337.22
2022-09-15T04:04:35.482Z,99339.88
2022-09-15T04:07:37.052Z,99339.06
2022-09-15T04:10:40.202Z,99343.16
2022-09-15T04:13:42.266Z,99352.47
2022-09-15T04:16:44.154Z,99335.16
2022-09-15T04:19:45.864Z,99343.31
2022-09-15T04:22:47.896Z,99336.44
2022-09-15T04:26:04.720Z,99333.00
2022-09-15T04:29:13.418Z,99335.19
2022-09-15T04:32:15.394Z,99347.75
2022-09-15T04:35:17.045Z,99347.19
2022-09-15T04:38:18.890Z,99347.03
2022-09-15T04:41:21.044Z,99344.28
2022-09-15T04:44:22.961Z,99346.13
2022-09-15T04:47:24.561Z,99350.72
2022-09-15T04:50:26.114Z,99348.19
2022-09-15T04:53:28.024Z,99342.81
2022-09-15T04:56:29.621Z,99352.41
2022-09-15T04:59:31.212Z,99354.19
2022-09-15T05:02:33.524Z,99362.47
2022-09-15T05:05:35.519Z,99365.03
2022-09-15T05:08:37.170Z,99383.37
2022-09-15T05:11:39.100Z,99380.88
2022-09-15T05:14:40.864Z,99381.84
2022-09-15T05:17:42.445Z,99375.94
2022-09-15T05:20:44.435Z,99365.53
2022-09-15T05:23:46.919Z,99365.78
2022-09-15T05:26:48.577Z,99365.91
2022-09-15T05:29:56.886Z,99368.34
2022-09-15T05:33:06.270Z,99371.72
2022-09-15T05:36:07.898Z,99397.41
2022-09-15T05:39:09.844Z,99407.34
2022-09-15T05:42:11.531Z,99419.69
2022-09-15T05:45:13.501Z,99428.44
2022-09-15T05:48:15.091Z,99438.59
2022-09-15T05:51:17.026Z,99446.03
2022-09-15T05:54:18.720Z,99450.31
2022-09-15T05:57:20.697Z,99463.56
2022-09-15T06:00:22.894Z,99472.44
2022-09-15T06:03:28.677Z,99447.50
2022-09-15T06:06:33.185Z,99427.06
2022-09-15T06:09:35.219Z,99428.59
2022-09-15T06:12:36.813Z,99420.59
2022-09-15T06:15:41.187Z,99419.63
2022-09-15T06:18:42.989Z,99418.88
2022-09-15T06:21:44.906Z,99417.00
2022-09-15T06:24:46.512Z,99436.50
2022-09-15T06:27:50.359Z,99426.88
2022-09-15T06:30:51.985Z,99429.03
2022-09-15T06:33:56.183Z,99435.72
2022-09-15T06:36:57.890Z,99436.25
2022-09-15T06:40:00.001Z,99447.88
2022-09-15T06:43:01.688Z,99452.72
2022-09-15T06:46:04.857Z,99443.44
2022-09-15T06:49:07.249Z,99442.88
2022-09-15T06:52:08.899Z,99442.41
2022-09-15T06:55:10.488Z,99438.78
2022-09-15T06:58:12.314Z,99444.81
2022-09-15T07:01:19.823Z,99452.47
2022-09-15T07:04:22.206Z,99450.63
2022-09-15T07:07:23.980Z,99452.84
2022-09-15T07:10:25.873Z,99443.50
2022-09-15T07:13:27.499Z,99433.38
2022-09-15T07:16:29.755Z,99432.91
2022-09-15T07:19:31.739Z,99436.63
2022-09-15T07:22:33.404Z,99445.53
2022-09-15T07:25:35.918Z,99445.81
2022-09-15T07:28:38.813Z,99441.41
2022-09-15T07:31:40.719Z,99452.63
2022-09-15T07:34:42.299Z,99458.06
2022-09-15T07:37:44.793Z,99456.06
2022-09-15T07:40:46.510Z,99463.69
2022-09-15T07:43:50.643Z,99459.97
2022-09-15T07:46:52.191Z,99454.44
2022-09-15T07:49:54.080Z,99458.44
2022-09-15T07:52:56.864Z,99449.28
2022-09-15T07:55:58.458Z,99458.88
2022-09-15T07:59:00.436Z,99461.53
2022-09-15T08:02:02.110Z,99473.06
2022-09-15T08:05:04.352Z,99480.50
2022-09-15T08:08:06.355Z,99475.84
2022-09-15T08:11:19.521Z,99482.13
2022-09-15T08:14:21.743Z,99484.53
2022-09-15T08:17:23.747Z,99490.72
2022-09-15T08:20:25.644Z,99491.00
2022-09-15T08:23:27.196Z,99494.25
2022-09-15T08:26:30.003Z,99490.66
2022-09-15T08:29:32.300Z,99492.03
2022-09-15T08:32:33.847Z,99487.31
2022-09-15T08:35:37.278Z,99492.94
2022-09-15T08:38:40.795Z,99492.44
2022-09-15T08:41:48.505Z,99486.88
2022-09-15T08:44:56.737Z,99500.56
2022-09-15T08:48:02.942Z,99494.88
2022-09-15T08:51:12.255Z,99484.09
2022-09-15T08:54:22.855Z,99482.28
2022-09-15T08:57:26.279Z,99484.13
2022-09-15T09:00:29.148Z,99477.28
2022-09-15T09:03:34.000Z,99464.94
2022-09-15T09:06:44.939Z,99451.72
2022-09-15T09:10:17.697Z,99437.19
2022-09-15T09:13:41.235Z,99431.59
2022-09-15T09:16:49.887Z,99418.06
2022-09-15T09:20:14.623Z,99428.84
2022-09-15T09:23:24.220Z,99419.53
2022-09-15T09:26:29.731Z,99431.56
2022-09-15T09:29:42.868Z,99420.03
2022-09-15T09:33:11.398Z,99420.88
2022-09-15T09:36:13.318Z,99423.91
2022-09-15T09:39:15.571Z,99422.78
2022-09-15T09:42:18.945Z,99415.63
2022-09-15T09:45:20.782Z,99411.38
2022-09-15T09:48:25.134Z,99420.03
2022-09-15T09:51:31.569Z,99419.22
2022-09-15T09:54:34.231Z,99420.03
2022-09-15T09:57:40.505Z,99424.38
2022-09-15T10:00:42.203Z,99423.81
2022-09-15T10:03:45.289Z,99400.63
2022-09-15T10:06:47.441Z,99405.69
2022-09-15T10:09:59.185Z,99403.50
2022-09-15T10:13:03.331Z,99397.41
2022-09-15T10:16:06.897Z,99398.81
2022-09-15T10:19:14.248Z,99395.53
2022-09-15T10:22:27.495Z,99378.94
2022-09-15T10:25:55.193Z,99380.16
2022-09-15T10:29:17.262Z,99377.31
2022-09-15T10:32:25.205Z,99375.22
2022-09-15T10:35:33.015Z,99371.22
2022-09-15T10:38:43.041Z,99373.75
2022-09-15T10:41:59.325Z,99367.28
2022-09-15T10:45:03.829Z,99362.00
2022-09-15T10:48:27.070Z,99356.59
2022-09-15T10:52:00.873Z,99344.31
2022-09-15T10:55:53.523Z,99357.03
2022-09-15T10:59:22.331Z,99362.81
2022-09-15T11:02:41.092Z,99368.34
2022-09-15T11:05:49.272Z,99367.72
2022-09-15T11:09:02.578Z,99363.16
2022-09-15T11:12:13.152Z,99358.56
2022-09-15T11:19:29.808Z,99365.19
2022-09-15T11:30:15.200Z,99360.59
2022-09-15T11:33:24.207Z,99359.34
2022-09-15T11:36:38.480Z,99340.84
2022-09-15T11:39:45.987Z,99329.22
2022-09-15T11:43:22.965Z,99339.41
2022-09-15T11:47:00.349Z,99342.66
2022-09-15T11:50:10.754Z,99342.25
2022-09-15T11:53:44.057Z,99347.19
2022-09-15T11:56:47.610Z,99341.62
2022-09-15T11:59:51.965Z,99324.72
2022-09-15T12:03:05.656Z,99320.66
2022-09-15T12:06:15.054Z,99318.44
2022-09-15T12:09:18.226Z,99311.34
2022-09-15T12:12:21.690Z,99312.72
2022-09-15T12:15:27.696Z,99315.22
2022-09-15T12:19:01.589Z,99305.66
2022-09-15T12:22:06.469Z,99306.94
2022-09-15T12:25:15.124Z,99296.25
2022-09-15T12:28:22.895Z,99289.97
2022-09-15T12:31:31.657Z,99292.00
2022-09-15T12:34:36.763Z,99279.78
2022-09-15T12:38:01.471Z,99282.03
2022-09-15T12:41:03.164Z,99266.56
2022-09-15T12:44:21.343Z,99261.22
2022-09-15T12:47:40.149Z,99256.38
2022-09-15T12:50:44.310Z,99259.16
2022-09-15T12:53:59.835Z,99253.53
2022-09-15T12:57:02.979Z,99259.84
2022-09-15T13:00:27.674Z,99263.88
2022-09-15T13:03:59.060Z,99270.97
2022-09-15T13:07:15.811Z,99262.44
2022-09-15T13:10:27.139Z,99259.63
2022-09-15T13:13:43.898Z,99236.88
2022-09-15T13:17:24.128Z,99216.56
2022-09-15T13:20:33.437Z,99195.19
2022-09-15T13:23:40.943Z,99186.06
2022-09-15T13:26:44.992Z,99195.75
2022-09-15T13:30:09.657Z,99201.00
2022-09-15T13:33:26.254Z,99195.75
2022-09-15T13:40:25.453Z,99204.56
2022-09-15T13:43:45.665Z,99209.53
2022-09-15T13:47:18.668Z,99212.91
2022-09-15T13:50:34.262Z,99214.91
2022-09-15T13:54:11.568Z,99212.41
2022-09-15T13:57:13.220Z,99215.41
2022-09-15T14:00:39.700Z,99219.91
2022-09-15T14:04:18.217Z,99205.47
2022-09-15T14:07:23.418Z,99226.88
2022-09-15T14:10:28.182Z,99228.19
2022-09-15T14:13:31.414Z,99222.47
2022-09-15T14:16:36.293Z,99227.44
2022-09-15T14:19:39.827Z,99205.00
2022-09-15T14:22:41.663Z,99200.03
2022-09-15T14:25:46.013Z,99182.78
2022-09-15T14:29:02.485Z,99174.28
2022-09-15T14:32:04.286Z,99171.09
2022-09-15T14:35:09.266Z,99153.97
2022-09-15T14:38:22.704Z,99165.44
2022-09-15T14:41:24.619Z,99193.47
2022-09-15T14:48:06.322Z,99172.91
2022-09-15T14:51:28.768Z,99171.91
2022-09-15T14:54:37.615Z,99176.81
2022-09-15T15:01:14.235Z,99210.28
2022-09-15T15:04:18.887Z,99215.56
2022-09-15T15:07:30.921Z,99211.16
2022-09-15T15:10:35.922Z,99227.00
2022-09-15T15:13:42.690Z,99219.72
2022-09-15T15:16:53.544Z,99210.94
2022-09-15T15:20:14.384Z,99216.22
2022-09-15T15:23:24.525Z,99217.97
2022-09-15T15:26:34.096Z,99234.56
2022-09-15T15:29:43.283Z,99233.69
2022-09-15T15:32:45.629Z,99249.75
2022-09-15T15:35:48.885Z,99248.03
2022-09-15T15:38:57.047Z,99263.84
2022-09-15T15:42:02.546Z,99253.63
2022-09-15T15:45:24.648Z,99263.22
2022-09-15T15:48:36.911Z,99263.44
2022-09-15T15:51:40.793Z,99260.72
2022-09-15T15:54:43.161Z,99266.31
2022-09-15T15:57:47.665Z,99260.22
2022-09-15T16:00:53.828Z,99270.94
2022-09-15T16:03:55.614Z,99262.78
2022-09-15T16:06:57.599Z,99280.62
2022-09-15T16:10:00.218Z,99271.81
2022-09-15T16:13:02.121Z,99246.53
2022-09-15T16:16:22.625Z,99222.84
2022-09-15T16:19:24.676Z,99217.91
2022-09-15T16:22:26.260Z,99227.91
2022-09-15T16:25:34.337Z,99213.53
2022-09-15T16:28:35.941Z,99188.19
2022-09-15T16:31:38.026Z,99179.59
2022-09-15T16:34:39.911Z,99208.50
2022-09-15T16:37:41.509Z,99204.84
2022-09-15T16:40:43.168Z,99235.34
2022-09-15T16:43:46.445Z,99236.97
2022-09-15T16:46:48.427Z,99242.34
2022-09-15T16:49:52.667Z,99259.91
2022-09-15T16:52:54.749Z,99250.06
2022-09-15T16:55:56.762Z,99263.75
2022-09-15T16:59:00.443Z,99255.63
2022-09-15T17:02:02.433Z,99267.22
2022-09-15T17:05:15.515Z,99248.72
2022-09-15T17:08:19.238Z,99254.91
2022-09-15T17:11:24.237Z,99259.34
2022-09-15T17:14:26.003Z,99263.78
2022-09-15T17:17:27.633Z,99264.75
2022-09-15T17:20:29.530Z,99269.91
2022-09-15T17:23:35.766Z,99264.31
2022-09-15T17:26:37.845Z,99262.56
2022-09-15T17:29:39.493Z,99247.59
2022-09-15T17:32:42.117Z,99251.22
2022-09-15T17:35:44.580Z,99238.75
2022-09-15T17:38:49.128Z,99224.94
2022-09-15T17:41:51.442Z,99215.81
2022-09-15T17:44:53.377Z,99215.84
2022-09-15T17:47:55.252Z,99201.00
2022-09-15T17:50:57.048Z,99190.44
2022-09-15T17:53:59.035Z,99198.69
2022-09-15T17:57:00.967Z,99194.41
2022-09-15T18:00:03.701Z,99206.84
2022-09-15T18:03:16.286Z,99207.44
2022-09-15T18:06:18.429Z,99213.97
2022-09-15T18:09:20.256Z,99221.78
2022-09-15T18:12:21.923Z,99213.78
2022-09-15T18:15:32.033Z,99204.91
2022-09-15T18:18:34.525Z,99211.94
2022-09-15T18:21:36.200Z,99215.66
2022-09-15T18:24:38.244Z,99225.41
2022-09-15T18:27:39.862Z,99221.28
2022-09-15T18:30:44.939Z,99230.31
2022-09-15T18:33:46.674Z,99234.47
2022-09-15T18:36:48.718Z,99235.53
2022-09-15T18:39:50.385Z,99253.28
2022-09-15T18:42:52.512Z,99248.66
2022-09-15T18:46:01.599Z,99248.13
2022-09-15T18:49:03.777Z,99242.00
2022-09-15T18:52:05.701Z,99233.19
2022-09-15T18:55:11.663Z,99233.78
2022-09-15T18:58:14.148Z,99234.19
2022-09-15T19:01:18.345Z,99230.69
2022-09-15T19:04:20.498Z,99230.97
2022-09-15T19:07:26.331Z,99239.87
2022-09-15T19:10:30.321Z,99244.91
2022-09-15T19:13:32.975Z,99238.78
2022-09-15T19:16:56.638Z,99244.19
2022-09-15T19:19:57.096Z,99243.38
2022-09-15T19:22:58.912Z,99246.84
2022-09-15T19:26:09.764Z,99252.81
2022-09-15T19:29:12.066Z,99253.09
2022-09-15T19:32:18.350Z,99259.53
2022-09-15T19:35:20.373Z,99261.28
2022-09-15T19:38:22.515Z,99257.53
2022-09-15T19:41:24.544Z,99268.09
2022-09-15T19:44:26.604Z,99276.75
2022-09-15T19:47:28.447Z,99276.09
2022-09-15T19:50:30.149Z,99273.44
2022-09-15T19:53:32.874Z,99268.19
2022-09-15T19:56:35.784Z,99271.00
2022-09-15T19:59:37.787Z,99268.22
2022-09-15T20:02:40.053Z,99279.41
2022-09-15T20:05:41.703Z,99277.69
2022-09-15T20:08:45.876Z,99281.38
2022-09-15T20:11:48.198Z,99282.44
2022-09-15T20:14:49.707Z,99284.09
2022-09-15T20:17:51.912Z,99286.69
2022-09-15T20:20:54.276Z,99299.87
2022-09-15T20:23:57.300Z,99308.09
2022-09-15T20:26:59.303Z,99310.53
2022-09-15T20:30:00.915Z,99319.31
2022-09-15T20:33:20.865Z,99320.03
2022-09-15T20:36:25.923Z,99311.19
2022-09-15T20:39:27.790Z,99322.78
2022-09-15T20:42:29.468Z,99323.75
2022-09-15T20:45:36.446Z,99320.03
2022-09-15T20:48:39.260Z,99317.72
2022-09-15T20:51:41.378Z,99324.72
2022-09-15T20:54:42.972Z,99321.72
2022-09-15T20:57:44.579Z,99330.66
2022-09-15T21:00:47.943Z,99332.50
2022-09-15T21:03:50.727Z,99332.72
2022-09-15T21:06:52.301Z,99326.44
2022-09-15T21:09:53.891Z,99330.91
2022-09-15T21:12:55.891Z,99331.56
2022-09-15T21:15:59.546Z,99337.81
2022-09-15T21:19:01.860Z,99326.31
2022-09-15T21:22:03.870Z,99342.16
2022-09-15T21:25:06.118Z,99343.88
2022-09-15T21:28:07.793Z,99343.06
2022-09-15T21:31:15.984Z,99344.78
2022-09-15T21:34:17.619Z,99343.03
2022-09-15T21:37:19.615Z,99344.09
2022-09-15T21:40:21.245Z,99350.19
2022-09-15T21:43:23.303Z,99345.84
2022-09-15T21:46:27.960Z,99342.34
2022-09-15T21:49:30.106Z,99345.97
2022-09-15T21:52:33.443Z,99348.47
2022-09-15T21:55:37.011Z,99349.44
2022-09-15T21:58:43.186Z,99350.22
2022-09-15T22:01:45.307Z,99353.72
2022-09-15T22:04:46.960Z,99369.44
2022-09-15T22:07:48.562Z,99368.66
2022-09-15T22:10:50.451Z,99371.28
2022-09-15T22:13:52.173Z,99381.69
2022-09-15T22:16:55.124Z,99375.34
2022-09-15T22:19:57.300Z,99381.75
2022-09-15T22:23:01.959Z,99379.16
2022-09-15T22:26:09.804Z,99373.84
2022-09-15T22:29:12.522Z,99378.22
2022-09-15T22:32:14.345Z,99375.63
2022-09-15T22:35:17.442Z,99383.47
2022-09-15T22:38:19.884Z,99372.91
2022-09-15T22:41:25.238Z,99377.22
2022-09-15T22:44:26.870Z,99383.28
2022-09-15T22:47:28.440Z,99399.19
2022-09-15T22:50:30.577Z,99407.03
2022-09-15T22:53:32.192Z,99419.38
2022-09-15T22:56:34.121Z,99430.94
2022-09-15T22:59:35.683Z,99439.63
2022-09-15T23:02:37.316Z,99460.59
2022-09-15T23:05:39.352Z,99458.16
2022-09-15T23:08:41.505Z,99455.50
2022-09-15T23:11:43.334Z,99456.44
2022-09-15T23:14:45.317Z,99466.09
2022-09-15T23:17:47.439Z,99467.94
2022-09-15T23:20:55.810Z,99465.34
2022-09-15T23:24:16.090Z,99462.69
2022-09-15T23:27:18.296Z,99469.66
2022-09-15T23:30:19.988Z,99460.94
2022-09-15T23:33:23.157Z,99461.03
2022-09-15T23:36:24.849Z,99457.41
2022-09-15T23:39:26.975Z,99456.59
2022-09-15T23:42:28.603Z,99453.16
2022-09-15T23:45:30.203Z,99456.59
2022-09-15T23:48:32.807Z,99460.09
2022-09-15T23:51:34.722Z,99458.38
2022-09-15T23:54:36.734Z,99456.81
2022-09-15T23:57:38.424Z,99450.63
